sensor_id;sensor_type;location;lat;lon;timestamp;P1;durP1;ratioP1;P2;durP2;ratioP2
21833;SDS011;11079;51.092;3.458;2023-07-16T00:02:03;9.32;;;3.63;;
21833;SDS011;11079;51.092;3.458;2023-07-16T00:04:30;10.88;;;4.90;;
21833;SDS011;11079;51.092;3.458;2023-07-16T00:07:02;8.80;;;3.97;;
21833;SDS011;11079;51.092;3.458;2023-07-16T00:09:28;13.95;;;4.30;;
21833;SDS011;11079;51.092;3.458;2023-07-16T00:11:53;14.50;;;4.65;;
21833;SDS011;11079;51.092;3.458;2023-07-16T00:14:19;11.25;;;4.63;;
21833;SDS011;11079;51.092;3.458;2023-07-16T00:16:44;14.25;;;5.00;;
21833;SDS011;11079;51.092;3.458;2023-07-16T00:19:11;13.35;;;4.47;;
21833;SDS011;11079;51.092;3.458;2023-07-16T00:21:37;11.02;;;4.30;;
21833;SDS011;11079;51.092;3.458;2023-07-16T00:24:03;10.65;;;5.00;;
21833;SDS011;11079;51.092;3.458;2023-07-16T00:26:29;11.52;;;4.05;;
21833;SDS011;11079;51.092;3.458;2023-07-16T00:28:55;9.40;;;4.07;;
21833;SDS011;11079;51.092;3.458;2023-07-16T00:31:21;12.77;;;4.80;;
21833;SDS011;11079;51.092;3.458;2023-07-16T00:33:46;11.80;;;4.63;;
21833;SDS011;11079;51.092;3.458;2023-07-16T00:36:12;13.55;;;4.63;;
21833;SDS011;11079;51.092;3.458;2023-07-16T00:38:37;12.13;;;4.50;;
21833;SDS011;11079;51.092;3.458;2023-07-16T00:41:05;10.57;;;4.82;;
21833;SDS011;11079;51.092;3.458;2023-07-16T00:43:30;8.50;;;3.78;;
21833;SDS011;11079;51.092;3.458;2023-07-16T00:45:56;13.75;;;4.43;;
21833;SDS011;11079;51.092;3.458;2023-07-16T00:48:23;8.90;;;4.28;;
21833;SDS011;11079;51.092;3.458;2023-07-16T00:50:49;14.45;;;4.72;;
21833;SDS011;11079;51.092;3.458;2023-07-16T00:53:17;9.48;;;3.90;;
21833;SDS011;11079;51.092;3.458;2023-07-16T00:55:44;11.70;;;4.65;;
21833;SDS011;11079;51.092;3.458;2023-07-16T00:58:10;7.78;;;3.95;;
21833;SDS011;11079;51.092;3.458;2023-07-16T01:00:38;12.00;;;5.00;;
21833;SDS011;11079;51.092;3.458;2023-07-16T01:03:06;14.68;;;4.90;;
21833;SDS011;11079;51.092;3.458;2023-07-16T01:08:38;16.35;;;4.63;;
21833;SDS011;11079;51.092;3.458;2023-07-16T01:11:05;11.05;;;4.20;;
21833;SDS011;11079;51.092;3.458;2023-07-16T01:13:32;11.65;;;3.83;;
21833;SDS011;11079;51.092;3.458;2023-07-16T01:15:58;10.48;;;3.92;;
21833;SDS011;11079;51.092;3.458;2023-07-16T01:18:24;11.38;;;4.25;;
21833;SDS011;11079;51.092;3.458;2023-07-16T01:20:50;11.20;;;4.00;;
21833;SDS011;11079;51.092;3.458;2023-07-16T01:26:02;9.88;;;3.88;;
21833;SDS011;11079;51.092;3.458;2023-07-16T01:31:45;8.15;;;3.63;;
21833;SDS011;11079;51.092;3.458;2023-07-16T01:34:11;9.10;;;4.20;;
21833;SDS011;11079;51.092;3.458;2023-07-16T01:36:39;9.65;;;3.72;;
21833;SDS011;11079;51.092;3.458;2023-07-16T01:39:05;13.63;;;5.57;;
21833;SDS011;11079;51.092;3.458;2023-07-16T01:41:31;10.20;;;4.38;;
21833;SDS011;11079;51.092;3.458;2023-07-16T01:43:56;12.35;;;4.78;;
21833;SDS011;11079;51.092;3.458;2023-07-16T01:46:22;6.35;;;4.15;;
21833;SDS011;11079;51.092;3.458;2023-07-16T01:48:49;11.82;;;4.47;;
21833;SDS011;11079;51.092;3.458;2023-07-16T01:51:14;8.10;;;4.18;;
21833;SDS011;11079;51.092;3.458;2023-07-16T01:53:40;7.30;;;4.20;;
21833;SDS011;11079;51.092;3.458;2023-07-16T01:56:06;8.63;;;4.43;;
21833;SDS011;11079;51.092;3.458;2023-07-16T01:58:32;6.70;;;4.25;;
21833;SDS011;11079;51.092;3.458;2023-07-16T02:00:57;10.70;;;5.03;;
21833;SDS011;11079;51.092;3.458;2023-07-16T02:03:23;10.15;;;4.10;;
21833;SDS011;11079;51.092;3.458;2023-07-16T02:05:49;6.47;;;4.45;;
21833;SDS011;11079;51.092;3.458;2023-07-16T02:08:16;7.50;;;4.40;;
21833;SDS011;11079;51.092;3.458;2023-07-16T02:10:42;8.70;;;3.90;;
21833;SDS011;11079;51.092;3.458;2023-07-16T02:13:07;8.13;;;4.20;;
21833;SDS011;11079;51.092;3.458;2023-07-16T02:15:33;10.30;;;4.60;;
21833;SDS011;11079;51.092;3.458;2023-07-16T02:17:58;12.73;;;4.45;;
21833;SDS011;11079;51.092;3.458;2023-07-16T02:20:24;8.75;;;4.63;;
21833;SDS011;11079;51.092;3.458;2023-07-16T02:22:49;9.95;;;4.50;;
21833;SDS011;11079;51.092;3.458;2023-07-16T02:25:15;12.75;;;5.07;;
21833;SDS011;11079;51.092;3.458;2023-07-16T02:27:41;9.93;;;4.45;;
21833;SDS011;11079;51.092;3.458;2023-07-16T02:30:06;12.00;;;5.82;;
21833;SDS011;11079;51.092;3.458;2023-07-16T02:32:33;9.07;;;4.07;;
21833;SDS011;11079;51.092;3.458;2023-07-16T02:34:59;11.73;;;4.13;;
21833;SDS011;11079;51.092;3.458;2023-07-16T02:37:25;9.50;;;4.28;;
21833;SDS011;11079;51.092;3.458;2023-07-16T02:39:50;9.02;;;4.35;;
21833;SDS011;11079;51.092;3.458;2023-07-16T02:42:16;11.80;;;4.85;;
21833;SDS011;11079;51.092;3.458;2023-07-16T02:44:41;9.68;;;4.57;;
21833;SDS011;11079;51.092;3.458;2023-07-16T02:47:09;8.55;;;4.28;;
21833;SDS011;11079;51.092;3.458;2023-07-16T02:49:36;8.55;;;4.68;;
21833;SDS011;11079;51.092;3.458;2023-07-16T02:52:02;8.30;;;4.80;;
21833;SDS011;11079;51.092;3.458;2023-07-16T02:54:28;9.68;;;4.85;;
21833;SDS011;11079;51.092;3.458;2023-07-16T02:56:53;9.68;;;5.32;;
21833;SDS011;11079;51.092;3.458;2023-07-16T02:59:19;10.93;;;4.75;;
21833;SDS011;11079;51.092;3.458;2023-07-16T03:01:45;12.25;;;4.95;;
21833;SDS011;11079;51.092;3.458;2023-07-16T03:04:10;12.38;;;4.90;;
21833;SDS011;11079;51.092;3.458;2023-07-16T03:06:36;8.35;;;4.40;;
21833;SDS011;11079;51.092;3.458;2023-07-16T03:09:01;7.30;;;4.70;;
21833;SDS011;11079;51.092;3.458;2023-07-16T03:11:28;11.13;;;5.28;;
21833;SDS011;11079;51.092;3.458;2023-07-16T03:13:53;9.95;;;5.90;;
21833;SDS011;11079;51.092;3.458;2023-07-16T03:16:19;10.05;;;5.38;;
21833;SDS011;11079;51.092;3.458;2023-07-16T03:18:50;9.93;;;5.80;;
21833;SDS011;11079;51.092;3.458;2023-07-16T03:21:18;12.45;;;5.43;;
21833;SDS011;11079;51.092;3.458;2023-07-16T03:23:43;9.32;;;4.57;;
21833;SDS011;11079;51.092;3.458;2023-07-16T03:26:09;9.50;;;5.10;;
21833;SDS011;11079;51.092;3.458;2023-07-16T03:28:34;12.90;;;5.43;;
21833;SDS011;11079;51.092;3.458;2023-07-16T03:31:00;13.88;;;6.38;;
21833;SDS011;11079;51.092;3.458;2023-07-16T03:33:26;12.52;;;5.45;;
21833;SDS011;11079;51.092;3.458;2023-07-16T03:35:52;13.05;;;5.45;;
21833;SDS011;11079;51.092;3.458;2023-07-16T03:38:17;10.73;;;6.13;;
21833;SDS011;11079;51.092;3.458;2023-07-16T03:40:45;12.40;;;5.72;;
21833;SDS011;11079;51.092;3.458;2023-07-16T03:43:12;14.57;;;6.57;;
21833;SDS011;11079;51.092;3.458;2023-07-16T03:45:39;8.95;;;5.85;;
21833;SDS011;11079;51.092;3.458;2023-07-16T03:48:05;12.25;;;5.70;;
21833;SDS011;11079;51.092;3.458;2023-07-16T03:50:30;13.68;;;5.97;;
21833;SDS011;11079;51.092;3.458;2023-07-16T03:52:57;11.57;;;6.15;;
21833;SDS011;11079;51.092;3.458;2023-07-16T03:55:23;11.93;;;5.85;;
21833;SDS011;11079;51.092;3.458;2023-07-16T03:57:49;10.98;;;5.53;;
21833;SDS011;11079;51.092;3.458;2023-07-16T04:00:15;13.30;;;5.63;;
21833;SDS011;11079;51.092;3.458;2023-07-16T04:02:41;8.90;;;5.47;;
21833;SDS011;11079;51.092;3.458;2023-07-16T04:05:08;13.45;;;6.10;;
21833;SDS011;11079;51.092;3.458;2023-07-16T04:07:34;11.50;;;6.22;;
21833;SDS011;11079;51.092;3.458;2023-07-16T04:09:59;13.75;;;6.03;;
21833;SDS011;11079;51.092;3.458;2023-07-16T04:12:27;9.95;;;5.53;;
21833;SDS011;11079;51.092;3.458;2023-07-16T04:14:56;10.65;;;5.88;;
21833;SDS011;11079;51.092;3.458;2023-07-16T04:17:23;11.05;;;7.32;;
21833;SDS011;11079;51.092;3.458;2023-07-16T04:19:50;14.80;;;5.75;;
21833;SDS011;11079;51.092;3.458;2023-07-16T04:22:15;12.55;;;6.90;;
21833;SDS011;11079;51.092;3.458;2023-07-16T04:24:41;12.73;;;6.45;;
21833;SDS011;11079;51.092;3.458;2023-07-16T04:27:07;13.65;;;6.40;;
21833;SDS011;11079;51.092;3.458;2023-07-16T04:29:32;11.63;;;6.05;;
21833;SDS011;11079;51.092;3.458;2023-07-16T04:31:59;14.55;;;6.45;;
21833;SDS011;11079;51.092;3.458;2023-07-16T04:34:25;15.63;;;6.50;;
21833;SDS011;11079;51.092;3.458;2023-07-16T04:36:50;15.13;;;6.18;;
21833;SDS011;11079;51.092;3.458;2023-07-16T04:39:16;11.60;;;6.15;;
21833;SDS011;11079;51.092;3.458;2023-07-16T04:41:46;9.80;;;6.45;;
21833;SDS011;11079;51.092;3.458;2023-07-16T04:44:12;12.13;;;6.13;;
21833;SDS011;11079;51.092;3.458;2023-07-16T04:46:37;13.70;;;6.93;;
21833;SDS011;11079;51.092;3.458;2023-07-16T04:49:04;13.57;;;6.47;;
21833;SDS011;11079;51.092;3.458;2023-07-16T04:51:30;14.38;;;7.32;;
21833;SDS011;11079;51.092;3.458;2023-07-16T04:53:55;10.35;;;6.40;;
21833;SDS011;11079;51.092;3.458;2023-07-16T04:56:21;11.95;;;6.60;;
21833;SDS011;11079;51.092;3.458;2023-07-16T04:58:47;13.70;;;7.00;;
21833;SDS011;11079;51.092;3.458;2023-07-16T05:01:13;17.10;;;7.05;;
21833;SDS011;11079;51.092;3.458;2023-07-16T05:03:38;15.93;;;7.93;;
21833;SDS011;11079;51.092;3.458;2023-07-16T05:06:04;14.13;;;7.95;;
21833;SDS011;11079;51.092;3.458;2023-07-16T05:08:30;10.93;;;6.20;;
21833;SDS011;11079;51.092;3.458;2023-07-16T05:10:56;14.77;;;7.10;;
21833;SDS011;11079;51.092;3.458;2023-07-16T05:13:21;13.15;;;8.18;;
21833;SDS011;11079;51.092;3.458;2023-07-16T05:15:47;11.93;;;6.20;;
21833;SDS011;11079;51.092;3.458;2023-07-16T05:18:13;14.23;;;7.38;;
21833;SDS011;11079;51.092;3.458;2023-07-16T05:20:39;13.30;;;7.15;;
21833;SDS011;11079;51.092;3.458;2023-07-16T05:23:04;14.02;;;6.30;;
21833;SDS011;11079;51.092;3.458;2023-07-16T05:25:30;16.23;;;7.25;;
21833;SDS011;11079;51.092;3.458;2023-07-16T05:27:56;14.40;;;7.00;;
21833;SDS011;11079;51.092;3.458;2023-07-16T05:30:21;11.68;;;6.22;;
21833;SDS011;11079;51.092;3.458;2023-07-16T05:32:47;14.30;;;6.78;;
21833;SDS011;11079;51.092;3.458;2023-07-16T05:35:13;12.50;;;6.43;;
21833;SDS011;11079;51.092;3.458;2023-07-16T05:37:39;15.57;;;6.90;;
21833;SDS011;11079;51.092;3.458;2023-07-16T05:40:05;11.00;;;6.82;;
21833;SDS011;11079;51.092;3.458;2023-07-16T05:42:33;14.05;;;5.82;;
21833;SDS011;11079;51.092;3.458;2023-07-16T05:44:59;13.52;;;6.38;;
21833;SDS011;11079;51.092;3.458;2023-07-16T05:47:25;11.75;;;6.90;;
21833;SDS011;11079;51.092;3.458;2023-07-16T05:49:50;12.38;;;6.75;;
21833;SDS011;11079;51.092;3.458;2023-07-16T05:52:16;13.77;;;6.60;;
21833;SDS011;11079;51.092;3.458;2023-07-16T05:54:43;13.65;;;6.68;;
21833;SDS011;11079;51.092;3.458;2023-07-16T05:57:10;13.35;;;6.32;;
21833;SDS011;11079;51.092;3.458;2023-07-16T05:59:35;15.07;;;6.80;;
21833;SDS011;11079;51.092;3.458;2023-07-16T06:02:02;11.40;;;7.03;;
21833;SDS011;11079;51.092;3.458;2023-07-16T06:04:28;13.23;;;6.57;;
21833;SDS011;11079;51.092;3.458;2023-07-16T06:06:54;16.30;;;7.13;;
21833;SDS011;11079;51.092;3.458;2023-07-16T06:09:19;16.73;;;7.07;;
21833;SDS011;11079;51.092;3.458;2023-07-16T06:11:47;13.38;;;8.02;;
21833;SDS011;11079;51.092;3.458;2023-07-16T06:14:14;16.55;;;7.65;;
21833;SDS011;11079;51.092;3.458;2023-07-16T06:16:39;17.67;;;7.50;;
21833;SDS011;11079;51.092;3.458;2023-07-16T06:19:06;15.57;;;7.97;;
21833;SDS011;11079;51.092;3.458;2023-07-16T06:21:34;18.52;;;7.68;;
21833;SDS011;11079;51.092;3.458;2023-07-16T06:24:03;17.10;;;6.97;;
21833;SDS011;11079;51.092;3.458;2023-07-16T06:26:30;12.85;;;6.93;;
21833;SDS011;11079;51.092;3.458;2023-07-16T06:28:56;15.57;;;6.88;;
21833;SDS011;11079;51.092;3.458;2023-07-16T06:31:21;12.57;;;7.35;;
21833;SDS011;11079;51.092;3.458;2023-07-16T06:33:47;15.40;;;6.63;;
21833;SDS011;11079;51.092;3.458;2023-07-16T06:36:13;15.48;;;7.38;;
21833;SDS011;11079;51.092;3.458;2023-07-16T06:38:38;13.60;;;7.45;;
21833;SDS011;11079;51.092;3.458;2023-07-16T06:41:04;15.77;;;6.75;;
21833;SDS011;11079;51.092;3.458;2023-07-16T06:43:30;14.00;;;7.53;;
21833;SDS011;11079;51.092;3.458;2023-07-16T06:45:56;13.77;;;7.03;;
21833;SDS011;11079;51.092;3.458;2023-07-16T06:48:22;11.75;;;6.70;;
21833;SDS011;11079;51.092;3.458;2023-07-16T06:50:55;15.93;;;6.38;;
21833;SDS011;11079;51.092;3.458;2023-07-16T06:53:23;14.55;;;6.47;;
21833;SDS011;11079;51.092;3.458;2023-07-16T06:55:49;13.25;;;6.72;;
21833;SDS011;11079;51.092;3.458;2023-07-16T06:58:14;10.55;;;5.90;;
21833;SDS011;11079;51.092;3.458;2023-07-16T07:00:40;13.30;;;6.95;;
21833;SDS011;11079;51.092;3.458;2023-07-16T07:03:06;12.55;;;7.18;;
21833;SDS011;11079;51.092;3.458;2023-07-16T07:05:32;15.20;;;6.90;;
21833;SDS011;11079;51.092;3.458;2023-07-16T07:07:57;12.05;;;6.35;;
21833;SDS011;11079;51.092;3.458;2023-07-16T07:10:23;10.60;;;5.93;;
21833;SDS011;11079;51.092;3.458;2023-07-16T07:12:48;18.17;;;6.53;;
21833;SDS011;11079;51.092;3.458;2023-07-16T07:15:14;13.32;;;6.63;;
21833;SDS011;11079;51.092;3.458;2023-07-16T07:17:40;11.50;;;6.65;;
21833;SDS011;11079;51.092;3.458;2023-07-16T07:20:07;12.73;;;6.03;;
21833;SDS011;11079;51.092;3.458;2023-07-16T07:22:33;11.82;;;5.90;;
21833;SDS011;11079;51.092;3.458;2023-07-16T07:24:59;12.98;;;6.10;;
21833;SDS011;11079;51.092;3.458;2023-07-16T07:27:25;16.92;;;6.82;;
21833;SDS011;11079;51.092;3.458;2023-07-16T07:29:50;13.45;;;6.30;;
21833;SDS011;11079;51.092;3.458;2023-07-16T07:32:18;11.35;;;6.53;;
21833;SDS011;11079;51.092;3.458;2023-07-16T07:34:44;12.73;;;5.82;;
21833;SDS011;11079;51.092;3.458;2023-07-16T07:37:10;12.90;;;6.85;;
21833;SDS011;11079;51.092;3.458;2023-07-16T07:39:36;13.85;;;6.32;;
21833;SDS011;11079;51.092;3.458;2023-07-16T07:42:01;13.18;;;5.63;;
21833;SDS011;11079;51.092;3.458;2023-07-16T07:44:27;13.23;;;6.32;;
21833;SDS011;11079;51.092;3.458;2023-07-16T07:46:52;10.02;;;5.22;;
21833;SDS011;11079;51.092;3.458;2023-07-16T07:49:18;12.98;;;6.32;;
21833;SDS011;11079;51.092;3.458;2023-07-16T07:51:43;16.23;;;5.70;;
21833;SDS011;11079;51.092;3.458;2023-07-16T07:54:09;11.30;;;5.72;;
21833;SDS011;11079;51.092;3.458;2023-07-16T07:56:34;12.93;;;6.05;;
21833;SDS011;11079;51.092;3.458;2023-07-16T07:59:00;8.20;;;5.90;;
21833;SDS011;11079;51.092;3.458;2023-07-16T08:01:26;11.13;;;6.38;;
21833;SDS011;11079;51.092;3.458;2023-07-16T08:03:52;13.82;;;6.70;;
21833;SDS011;11079;51.092;3.458;2023-07-16T08:06:17;15.18;;;5.88;;
21833;SDS011;11079;51.092;3.458;2023-07-16T08:08:43;11.35;;;5.90;;
21833;SDS011;11079;51.092;3.458;2023-07-16T08:11:08;10.18;;;5.63;;
21833;SDS011;11079;51.092;3.458;2023-07-16T08:13:34;13.05;;;5.65;;
21833;SDS011;11079;51.092;3.458;2023-07-16T08:16:00;17.23;;;6.13;;
21833;SDS011;11079;51.092;3.458;2023-07-16T08:18:25;15.27;;;5.78;;
21833;SDS011;11079;51.092;3.458;2023-07-16T08:20:51;13.00;;;6.50;;
21833;SDS011;11079;51.092;3.458;2023-07-16T08:23:17;11.23;;;6.20;;
21833;SDS011;11079;51.092;3.458;2023-07-16T08:25:42;12.68;;;6.00;;
21833;SDS011;11079;51.092;3.458;2023-07-16T08:28:09;12.40;;;5.72;;
21833;SDS011;11079;51.092;3.458;2023-07-16T08:30:35;11.88;;;5.80;;
21833;SDS011;11079;51.092;3.458;2023-07-16T08:33:02;16.10;;;6.32;;
21833;SDS011;11079;51.092;3.458;2023-07-16T08:35:28;15.43;;;6.30;;
21833;SDS011;11079;51.092;3.458;2023-07-16T08:37:53;11.65;;;5.50;;
21833;SDS011;11079;51.092;3.458;2023-07-16T08:40:19;14.65;;;6.53;;
21833;SDS011;11079;51.092;3.458;2023-07-16T08:42:46;9.55;;;5.45;;
21833;SDS011;11079;51.092;3.458;2023-07-16T08:45:14;15.05;;;7.10;;
21833;SDS011;11079;51.092;3.458;2023-07-16T08:47:41;11.68;;;5.80;;
21833;SDS011;11079;51.092;3.458;2023-07-16T08:50:07;14.32;;;6.72;;
21833;SDS011;11079;51.092;3.458;2023-07-16T08:52:34;16.85;;;6.40;;
21833;SDS011;11079;51.092;3.458;2023-07-16T08:54:59;11.85;;;5.95;;
21833;SDS011;11079;51.092;3.458;2023-07-16T08:57:25;13.27;;;5.95;;
21833;SDS011;11079;51.092;3.458;2023-07-16T08:59:52;15.85;;;7.18;;
21833;SDS011;11079;51.092;3.458;2023-07-16T09:02:20;14.10;;;6.90;;
21833;SDS011;11079;51.092;3.458;2023-07-16T09:04:46;15.95;;;6.65;;
21833;SDS011;11079;51.092;3.458;2023-07-16T09:07:13;13.85;;;6.55;;
21833;SDS011;11079;51.092;3.458;2023-07-16T09:09:39;14.20;;;7.28;;
21833;SDS011;11079;51.092;3.458;2023-07-16T09:12:05;8.50;;;4.80;;
21833;SDS011;11079;51.092;3.458;2023-07-16T09:14:30;7.15;;;4.00;;
21833;SDS011;11079;51.092;3.458;2023-07-16T09:16:56;5.57;;;3.42;;
21833;SDS011;11079;51.092;3.458;2023-07-16T09:19:22;6.32;;;3.22;;
21833;SDS011;11079;51.092;3.458;2023-07-16T09:21:48;4.63;;;2.92;;
21833;SDS011;11079;51.092;3.458;2023-07-16T09:24:14;5.15;;;2.67;;
21833;SDS011;11079;51.092;3.458;2023-07-16T09:26:53;5.22;;;2.30;;
21833;SDS011;11079;51.092;3.458;2023-07-16T09:29:20;5.60;;;2.50;;
21833;SDS011;11079;51.092;3.458;2023-07-16T09:31:56;7.00;;;2.67;;
21833;SDS011;11079;51.092;3.458;2023-07-16T09:34:26;7.97;;;2.60;;
21833;SDS011;11079;51.092;3.458;2023-07-16T09:36:52;6.53;;;1.92;;
21833;SDS011;11079;51.092;3.458;2023-07-16T09:39:18;7.55;;;2.00;;
21833;SDS011;11079;51.092;3.458;2023-07-16T09:41:50;4.70;;;1.63;;
21833;SDS011;11079;51.092;3.458;2023-07-16T09:44:16;4.85;;;1.55;;
21833;SDS011;11079;51.092;3.458;2023-07-16T09:46:43;4.22;;;1.63;;
21833;SDS011;11079;51.092;3.458;2023-07-16T09:49:11;4.88;;;1.92;;
21833;SDS011;11079;51.092;3.458;2023-07-16T09:51:37;8.00;;;1.60;;
21833;SDS011;11079;51.092;3.458;2023-07-16T09:54:04;6.00;;;1.65;;
21833;SDS011;11079;51.092;3.458;2023-07-16T09:56:37;2.92;;;1.40;;
21833;SDS011;11079;51.092;3.458;2023-07-16T09:59:09;8.48;;;1.55;;
21833;SDS011;11079;51.092;3.458;2023-07-16T10:01:40;4.90;;;1.40;;
21833;SDS011;11079;51.092;3.458;2023-07-16T10:04:13;3.15;;;1.20;;
21833;SDS011;11079;51.092;3.458;2023-07-16T10:06:50;3.78;;;1.40;;
21833;SDS011;11079;51.092;3.458;2023-07-16T10:09:37;4.85;;;1.10;;
21833;SDS011;11079;51.092;3.458;2023-07-16T10:14:39;2.60;;;0.90;;
21833;SDS011;11079;51.092;3.458;2023-07-16T10:17:06;3.28;;;1.20;;
21833;SDS011;11079;51.092;3.458;2023-07-16T10:19:45;5.07;;;1.55;;
21833;SDS011;11079;51.092;3.458;2023-07-16T10:22:11;4.93;;;1.35;;
21833;SDS011;11079;51.092;3.458;2023-07-16T10:24:38;4.70;;;1.10;;
21833;SDS011;11079;51.092;3.458;2023-07-16T10:27:04;4.38;;;1.35;;
21833;SDS011;11079;51.092;3.458;2023-07-16T10:29:30;6.40;;;1.70;;
21833;SDS011;11079;51.092;3.458;2023-07-16T10:31:56;4.45;;;1.13;;
21833;SDS011;11079;51.092;3.458;2023-07-16T10:34:23;5.40;;;1.40;;
21833;SDS011;11079;51.092;3.458;2023-07-16T10:36:50;3.90;;;1.25;;
21833;SDS011;11079;51.092;3.458;2023-07-16T10:39:16;6.60;;;1.42;;
21833;SDS011;11079;51.092;3.458;2023-07-16T10:41:41;4.32;;;1.50;;
21833;SDS011;11079;51.092;3.458;2023-07-16T10:44:14;4.65;;;1.35;;
21833;SDS011;11079;51.092;3.458;2023-07-16T10:46:43;2.65;;;1.50;;
21833;SDS011;11079;51.092;3.458;2023-07-16T10:49:09;3.58;;;1.60;;
21833;SDS011;11079;51.092;3.458;2023-07-16T10:51:34;5.45;;;1.92;;
21833;SDS011;11079;51.092;3.458;2023-07-16T10:54:00;5.05;;;1.77;;
21833;SDS011;11079;51.092;3.458;2023-07-16T10:56:30;5.85;;;1.98;;
21833;SDS011;11079;51.092;3.458;2023-07-16T10:59:01;3.60;;;1.80;;
21833;SDS011;11079;51.092;3.458;2023-07-16T11:01:28;4.95;;;1.98;;
21833;SDS011;11079;51.092;3.458;2023-07-16T11:03:59;4.35;;;1.98;;
21833;SDS011;11079;51.092;3.458;2023-07-16T11:06:54;3.88;;;1.77;;
21833;SDS011;11079;51.092;3.458;2023-07-16T11:12:17;5.32;;;2.03;;
21833;SDS011;11079;51.092;3.458;2023-07-16T11:14:45;6.95;;;1.75;;
21833;SDS011;11079;51.092;3.458;2023-07-16T11:17:12;7.07;;;1.92;;
21833;SDS011;11079;51.092;3.458;2023-07-16T11:19:38;2.78;;;1.45;;
21833;SDS011;11079;51.092;3.458;2023-07-16T11:22:05;3.30;;;1.60;;
21833;SDS011;11079;51.092;3.458;2023-07-16T11:24:42;3.58;;;1.70;;
21833;SDS011;11079;51.092;3.458;2023-07-16T11:27:21;5.18;;;1.80;;
21833;SDS011;11079;51.092;3.458;2023-07-16T11:29:49;4.93;;;1.65;;
21833;SDS011;11079;51.092;3.458;2023-07-16T11:32:26;5.53;;;2.08;;
21833;SDS011;11079;51.092;3.458;2023-07-16T11:34:54;4.38;;;1.70;;
21833;SDS011;11079;51.092;3.458;2023-07-16T11:37:23;4.50;;;2.00;;
21833;SDS011;11079;51.092;3.458;2023-07-16T11:40:05;5.30;;;2.05;;
21833;SDS011;11079;51.092;3.458;2023-07-16T11:42:38;5.05;;;2.17;;
21833;SDS011;11079;51.092;3.458;2023-07-16T11:45:24;5.35;;;1.67;;
21833;SDS011;11079;51.092;3.458;2023-07-16T11:47:52;3.00;;;1.70;;
21833;SDS011;11079;51.092;3.458;2023-07-16T11:50:25;4.32;;;1.80;;
21833;SDS011;11079;51.092;3.458;2023-07-16T11:52:59;3.03;;;1.48;;
21833;SDS011;11079;51.092;3.458;2023-07-16T11:55:26;4.00;;;1.67;;
21833;SDS011;11079;51.092;3.458;2023-07-16T11:57:53;5.55;;;1.55;;
21833;SDS011;11079;51.092;3.458;2023-07-16T12:00:19;3.28;;;1.58;;
21833;SDS011;11079;51.092;3.458;2023-07-16T12:02:45;5.07;;;1.67;;
21833;SDS011;11079;51.092;3.458;2023-07-16T12:05:18;4.13;;;1.60;;
21833;SDS011;11079;51.092;3.458;2023-07-16T12:07:44;5.47;;;1.70;;
21833;SDS011;11079;51.092;3.458;2023-07-16T12:10:10;4.43;;;1.30;;
21833;SDS011;11079;51.092;3.458;2023-07-16T12:12:35;4.93;;;1.75;;
21833;SDS011;11079;51.092;3.458;2023-07-16T12:15:03;3.95;;;1.33;;
21833;SDS011;11079;51.092;3.458;2023-07-16T12:17:29;3.35;;;1.52;;
21833;SDS011;11079;51.092;3.458;2023-07-16T12:19:55;3.20;;;1.30;;
21833;SDS011;11079;51.092;3.458;2023-07-16T12:22:20;4.18;;;1.42;;
21833;SDS011;11079;51.092;3.458;2023-07-16T12:24:47;3.35;;;1.50;;
21833;SDS011;11079;51.092;3.458;2023-07-16T12:27:14;5.18;;;1.42;;
21833;SDS011;11079;51.092;3.458;2023-07-16T12:29:41;4.60;;;1.42;;
21833;SDS011;11079;51.092;3.458;2023-07-16T12:32:11;2.88;;;1.42;;
21833;SDS011;11079;51.092;3.458;2023-07-16T12:34:38;6.18;;;1.80;;
21833;SDS011;11079;51.092;3.458;2023-07-16T12:37:04;2.72;;;1.02;;
21833;SDS011;11079;51.092;3.458;2023-07-16T12:39:32;6.03;;;1.83;;
21833;SDS011;11079;51.092;3.458;2023-07-16T12:41:58;5.13;;;1.50;;
21833;SDS011;11079;51.092;3.458;2023-07-16T12:44:23;5.72;;;1.73;;
21833;SDS011;11079;51.092;3.458;2023-07-16T12:46:49;5.60;;;1.70;;
21833;SDS011;11079;51.092;3.458;2023-07-16T12:49:26;6.13;;;1.80;;
21833;SDS011;11079;51.092;3.458;2023-07-16T13:02:31;8.20;;;1.75;;
21833;SDS011;11079;51.092;3.458;2023-07-16T13:08:44;4.57;;;1.55;;
21833;SDS011;11079;51.092;3.458;2023-07-16T13:11:24;3.30;;;1.63;;
21833;SDS011;11079;51.092;3.458;2023-07-16T13:38:37;3.28;;;1.33;;
21833;SDS011;11079;51.092;3.458;2023-07-16T14:41:06;3.28;;;1.45;;
21833;SDS011;11079;51.092;3.458;2023-07-16T15:08:30;4.38;;;1.45;;
21833;SDS011;11079;51.092;3.458;2023-07-16T15:19:02;4.82;;;1.23;;
21833;SDS011;11079;51.092;3.458;2023-07-16T15:25:25;3.70;;;1.48;;
21833;SDS011;11079;51.092;3.458;2023-07-16T15:28:32;2.67;;;1.15;;
21833;SDS011;11079;51.092;3.458;2023-07-16T15:31:21;6.30;;;1.58;;
21833;SDS011;11079;51.092;3.458;2023-07-16T15:33:57;5.22;;;1.70;;
21833;SDS011;11079;51.092;3.458;2023-07-16T15:37:02;4.40;;;1.60;;
21833;SDS011;11079;51.092;3.458;2023-07-16T15:39:49;4.65;;;1.83;;
21833;SDS011;11079;51.092;3.458;2023-07-16T15:42:15;5.22;;;2.40;;
21833;SDS011;11079;51.092;3.458;2023-07-16T15:44:46;5.45;;;1.60;;
21833;SDS011;11079;51.092;3.458;2023-07-16T15:47:44;4.07;;;1.63;;
21833;SDS011;11079;51.092;3.458;2023-07-16T15:50:27;5.45;;;2.08;;
21833;SDS011;11079;51.092;3.458;2023-07-16T15:53:03;3.83;;;1.95;;
21833;SDS011;11079;51.092;3.458;2023-07-16T15:55:40;6.18;;;1.60;;
21833;SDS011;11079;51.092;3.458;2023-07-16T15:58:27;5.53;;;1.67;;
21833;SDS011;11079;51.092;3.458;2023-07-16T16:01:08;3.55;;;1.90;;
21833;SDS011;11079;51.092;3.458;2023-07-16T16:03:49;5.35;;;1.85;;
21833;SDS011;11079;51.092;3.458;2023-07-16T16:06:24;5.05;;;1.85;;
21833;SDS011;11079;51.092;3.458;2023-07-16T16:09:21;3.97;;;1.60;;
21833;SDS011;11079;51.092;3.458;2023-07-16T16:11:51;7.15;;;2.03;;
21833;SDS011;11079;51.092;3.458;2023-07-16T16:14:17;4.40;;;2.00;;
21833;SDS011;11079;51.092;3.458;2023-07-16T16:16:45;6.28;;;1.75;;
21833;SDS011;11079;51.092;3.458;2023-07-16T16:19:46;5.82;;;2.03;;
21833;SDS011;11079;51.092;3.458;2023-07-16T16:22:20;3.85;;;1.63;;
21833;SDS011;11079;51.092;3.458;2023-07-16T16:24:48;5.10;;;1.50;;
21833;SDS011;11079;51.092;3.458;2023-07-16T16:27:14;5.70;;;2.17;;
21833;SDS011;11079;51.092;3.458;2023-07-16T16:29:44;3.83;;;1.52;;
21833;SDS011;11079;51.092;3.458;2023-07-16T16:32:09;5.10;;;1.80;;
21833;SDS011;11079;51.092;3.458;2023-07-16T16:34:43;5.22;;;1.67;;
21833;SDS011;11079;51.092;3.458;2023-07-16T16:37:21;5.65;;;2.25;;
21833;SDS011;11079;51.092;3.458;2023-07-16T16:39:53;4.88;;;1.60;;
21833;SDS011;11079;51.092;3.458;2023-07-16T16:42:42;4.38;;;1.50;;
21833;SDS011;11079;51.092;3.458;2023-07-16T16:45:37;6.13;;;1.60;;
21833;SDS011;11079;51.092;3.458;2023-07-16T16:48:32;4.15;;;1.50;;
21833;SDS011;11079;51.092;3.458;2023-07-16T16:51:23;3.75;;;1.80;;
21833;SDS011;11079;51.092;3.458;2023-07-16T16:53:57;5.57;;;1.83;;
21833;SDS011;11079;51.092;3.458;2023-07-16T16:56:27;3.33;;;1.35;;
21833;SDS011;11079;51.092;3.458;2023-07-16T16:59:04;5.00;;;1.70;;
21833;SDS011;11079;51.092;3.458;2023-07-16T17:04:28;4.47;;;2.05;;
21833;SDS011;11079;51.092;3.458;2023-07-16T17:10:30;7.72;;;2.50;;
21833;SDS011;11079;51.092;3.458;2023-07-16T17:12:56;6.18;;;1.85;;
21833;SDS011;11079;51.092;3.458;2023-07-16T17:15:57;6.78;;;2.03;;
21833;SDS011;11079;51.092;3.458;2023-07-16T17:18:48;7.18;;;2.42;;
21833;SDS011;11079;51.092;3.458;2023-07-16T17:21:48;6.10;;;2.25;;
21833;SDS011;11079;51.092;3.458;2023-07-16T17:24:17;5.00;;;1.95;;
21833;SDS011;11079;51.092;3.458;2023-07-16T17:26:52;5.90;;;2.20;;